sensor_id;sensor_type;location;lat;lon;timestamp;temperature;humidity
26186;DHT22;20067;48.764;9.176;2022-10-26T00:01:27;14.20;91.30
26186;DHT22;20067;48.764;9.176;2022-10-26T00:03:55;14.20;91.30
26186;DHT22;20067;48.764;9.176;2022-10-26T00:06:23;14.10;91.30
26186;DHT22;20067;48.764;9.176;2022-10-26T00:08:56;14.10;91.30
26186;DHT22;20067;48.764;9.176;2022-10-26T00:11:22;14.00;91.30
26186;DHT22;20067;48.764;9.176;2022-10-26T00:13:48;13.90;91.30
26186;DHT22;20067;48.764;9.176;2022-10-26T00:18:44;13.70;91.30
26186;DHT22;20067;48.764;9.176;2022-10-26T00:21:10;13.80;91.30
26186;DHT22;20067;48.764;9.176;2022-10-26T00:23:35;13.80;91.30
26186;DHT22;20067;48.764;9.176;2022-10-26T00:26:01;13.90;91.30
26186;DHT22;20067;48.764;9.176;2022-10-26T00:28:27;13.90;91.30
26186;DHT22;20067;48.764;9.176;2022-10-26T00:30:53;13.90;91.30
26186;DHT22;20067;48.764;9.176;2022-10-26T00:33:19;13.90;91.30
26186;DHT22;20067;48.764;9.176;2022-10-26T00:35:52;13.80;91.30
26186;DHT22;20067;48.764;9.176;2022-10-26T00:38:18;13.90;91.30
26186;DHT22;20067;48.764;9.176;2022-10-26T00:40:43;14.00;91.30
26186;DHT22;20067;48.764;9.176;2022-10-26T00:43:15;14.00;91.30
26186;DHT22;20067;48.764;9.176;2022-10-26T00:45:42;14.10;91.30
26186;DHT22;20067;48.764;9.176;2022-10-26T00:48:33;14.20;91.30
26186;DHT22;20067;48.764;9.176;2022-10-26T00:51:01;14.20;91.30
26186;DHT22;20067;48.764;9.176;2022-10-26T00:53:28;14.20;91.30
26186;DHT22;20067;48.764;9.176;2022-10-26T00:55:54;14.10;91.30
26186;DHT22;20067;48.764;9.176;2022-10-26T00:58:22;14.00;91.30
26186;DHT22;20067;48.764;9.176;2022-10-26T01:00:49;14.20;91.30
26186;DHT22;20067;48.764;9.176;2022-10-26T01:03:16;14.30;91.30
26186;DHT22;20067;48.764;9.176;2022-10-26T01:05:44;14.40;91.30
26186;DHT22;20067;48.764;9.176;2022-10-26T01:08:11;14.40;91.30
26186;DHT22;20067;48.764;9.176;2022-10-26T01:10:39;14.50;91.30
26186;DHT22;20067;48.764;9.176;2022-10-26T01:13:06;14.50;91.30
26186;DHT22;20067;48.764;9.176;2022-10-26T01:15:55;14.60;91.30
26186;DHT22;20067;48.764;9.176;2022-10-26T01:21:48;14.30;91.30
26186;DHT22;20067;48.764;9.176;2022-10-26T01:24:22;14.20;91.30
26186;DHT22;20067;48.764;9.176;2022-10-26T01:32:19;14.40;91.30
26186;DHT22;20067;48.764;9.176;2022-10-26T01:35:13;14.40;91.30
26186;DHT22;20067;48.764;9.176;2022-10-26T01:37:56;14.20;91.30
26186;DHT22;20067;48.764;9.176;2022-10-26T01:40:30;14.00;91.30
26186;DHT22;20067;48.764;9.176;2022-10-26T01:43:03;13.90;91.30
26186;DHT22;20067;48.764;9.176;2022-10-26T01:45:31;14.10;91.30
26186;DHT22;20067;48.764;9.176;2022-10-26T01:47:59;14.20;91.30
26186;DHT22;20067;48.764;9.176;2022-10-26T01:50:26;14.20;91.30
26186;DHT22;20067;48.764;9.176;2022-10-26T01:52:53;14.30;91.30
26186;DHT22;20067;48.764;9.176;2022-10-26T02:03:49;13.90;91.30
26186;DHT22;20067;48.764;9.176;2022-10-26T02:09:19;14.00;91.30
26186;DHT22;20067;48.764;9.176;2022-10-26T02:11:51;14.00;91.30
26186;DHT22;20067;48.764;9.176;2022-10-26T02:14:35;14.00;91.30
26186;DHT22;20067;48.764;9.176;2022-10-26T02:17:11;13.90;91.30
26186;DHT22;20067;48.764;9.176;2022-10-26T02:19:58;13.90;91.30
26186;DHT22;20067;48.764;9.176;2022-10-26T02:22:30;14.00;91.30
26186;DHT22;20067;48.764;9.176;2022-10-26T02:25:00;14.10;91.30
26186;DHT22;20067;48.764;9.176;2022-10-26T02:27:33;14.10;91.30
26186;DHT22;20067;48.764;9.176;2022-10-26T02:30:00;14.00;91.30
26186;DHT22;20067;48.764;9.176;2022-10-26T02:32:33;14.00;91.30
26186;DHT22;20067;48.764;9.176;2022-10-26T02:35:01;14.00;91.30
26186;DHT22;20067;48.764;9.176;2022-10-26T02:37:29;13.90;91.30
26186;DHT22;20067;48.764;9.176;2022-10-26T02:39:57;13.90;91.30
26186;DHT22;20067;48.764;9.176;2022-10-26T02:42:26;13.90;91.30
26186;DHT22;20067;48.764;9.176;2022-10-26T02:44:58;14.00;91.30
26186;DHT22;20067;48.764;9.176;2022-10-26T02:47:25;13.90;91.30
26186;DHT22;20067;48.764;9.176;2022-10-26T02:49:52;14.00;91.30
26186;DHT22;20067;48.764;9.176;2022-10-26T02:52:30;14.00;91.30
26186;DHT22;20067;48.764;9.176;2022-10-26T02:55:08;14.10;91.30
26186;DHT22;20067;48.764;9.176;2022-10-26T02:57:39;14.00;91.30
26186;DHT22;20067;48.764;9.176;2022-10-26T03:00:14;14.00;91.30
26186;DHT22;20067;48.764;9.176;2022-10-26T03:02:45;14.10;91.30
26186;DHT22;20067;48.764;9.176;2022-10-26T03:05:19;13.80;91.30
26186;DHT22;20067;48.764;9.176;2022-10-26T03:07:45;13.80;91.30
26186;DHT22;20067;48.764;9.176;2022-10-26T03:10:11;13.90;91.30
26186;DHT22;20067;48.764;9.176;2022-10-26T03:12:37;13.90;91.30
26186;DHT22;20067;48.764;9.176;2022-10-26T03:15:03;13.90;91.30
26186;DHT22;20067;48.764;9.176;2022-10-26T03:17:29;14.00;91.30
26186;DHT22;20067;48.764;9.176;2022-10-26T03:19:55;14.00;91.30
26186;DHT22;20067;48.764;9.176;2022-10-26T03:22:21;14.00;91.30
26186;DHT22;20067;48.764;9.176;2022-10-26T03:24:47;14.00;91.30
26186;DHT22;20067;48.764;9.176;2022-10-26T03:27:13;14.20;91.30
26186;DHT22;20067;48.764;9.176;2022-10-26T03:29:39;14.10;91.30
26186;DHT22;20067;48.764;9.176;2022-10-26T03:32:05;14.00;91.30
26186;DHT22;20067;48.764;9.176;2022-10-26T03:34:30;14.00;91.30
26186;DHT22;20067;48.764;9.176;2022-10-26T03:36:56;14.00;91.30
26186;DHT22;20067;48.764;9.176;2022-10-26T03:39:21;14.00;91.30
26186;DHT22;20067;48.764;9.176;2022-10-26T03:41:47;14.20;91.30
26186;DHT22;20067;48.764;9.176;2022-10-26T03:44:13;14.30;91.30
26186;DHT22;20067;48.764;9.176;2022-10-26T03:46:38;14.50;91.30
26186;DHT22;20067;48.764;9.176;2022-10-26T03:49:04;14.60;91.30
26186;DHT22;20067;48.764;9.176;2022-10-26T03:51:30;14.70;91.30
26186;DHT22;20067;48.764;9.176;2022-10-26T03:53:55;14.80;91.30
26186;DHT22;20067;48.764;9.176;2022-10-26T03:56:21;14.80;91.30
26186;DHT22;20067;48.764;9.176;2022-10-26T03:58:47;14.90;91.30
26186;DHT22;20067;48.764;9.176;2022-10-26T04:01:12;14.80;91.30
26186;DHT22;20067;48.764;9.176;2022-10-26T04:03:38;15.00;91.30
26186;DHT22;20067;48.764;9.176;2022-10-26T04:06:04;15.00;91.30
26186;DHT22;20067;48.764;9.176;2022-10-26T04:08:29;15.00;91.30
26186;DHT22;20067;48.764;9.176;2022-10-26T04:10:55;15.10;91.30
26186;DHT22;20067;48.764;9.176;2022-10-26T04:13:21;15.10;91.30
26186;DHT22;20067;48.764;9.176;2022-10-26T04:15:46;15.10;91.30
26186;DHT22;20067;48.764;9.176;2022-10-26T04:18:12;15.10;91.30
26186;DHT22;20067;48.764;9.176;2022-10-26T04:20:38;15.00;91.30
26186;DHT22;20067;48.764;9.176;2022-10-26T04:23:10;14.90;91.30
26186;DHT22;20067;48.764;9.176;2022-10-26T04:25:36;14.80;91.30
26186;DHT22;20067;48.764;9.176;2022-10-26T04:28:03;14.80;91.30
26186;DHT22;20067;48.764;9.176;2022-10-26T04:30:30;14.80;91.30
26186;DHT22;20067;48.764;9.176;2022-10-26T04:32:56;14.90;91.30
26186;DHT22;20067;48.764;9.176;2022-10-26T04:35:21;14.80;91.30
26186;DHT22;20067;48.764;9.176;2022-10-26T04:37:47;14.80;91.30
26186;DHT22;20067;48.764;9.176;2022-10-26T04:40:12;14.90;91.30
26186;DHT22;20067;48.764;9.176;2022-10-26T04:42:46;15.00;91.30
26186;DHT22;20067;48.764;9.176;2022-10-26T04:45:13;15.10;91.30
26186;DHT22;20067;48.764;9.176;2022-10-26T04:47:40;15.10;91.30
26186;DHT22;20067;48.764;9.176;2022-10-26T04:50:07;15.00;91.30
26186;DHT22;20067;48.764;9.176;2022-10-26T04:52:35;15.00;91.30
26186;DHT22;20067;48.764;9.176;2022-10-26T04:55:01;15.00;91.30
26186;DHT22;20067;48.764;9.176;2022-10-26T04:57:31;15.00;91.30
26186;DHT22;20067;48.764;9.176;2022-10-26T04:59:56;15.10;91.30
26186;DHT22;20067;48.764;9.176;2022-10-26T05:02:22;15.10;91.30
26186;DHT22;20067;48.764;9.176;2022-10-26T05:04:48;15.20;91.30
26186;DHT22;20067;48.764;9.176;2022-10-26T05:07:14;15.20;91.30
26186;DHT22;20067;48.764;9.176;2022-10-26T05:09:39;15.30;91.30
26186;DHT22;20067;48.764;9.176;2022-10-26T05:12:05;15.40;91.30
26186;DHT22;20067;48.764;9.176;2022-10-26T05:14:31;15.40;91.30
26186;DHT22;20067;48.764;9.176;2022-10-26T05:16:56;15.50;91.30
26186;DHT22;20067;48.764;9.176;2022-10-26T05:19:22;15.50;91.30
26186;DHT22;20067;48.764;9.176;2022-10-26T05:21:48;15.40;91.30
26186;DHT22;20067;48.764;9.176;2022-10-26T05:24:13;15.40;91.30
26186;DHT22;20067;48.764;9.176;2022-10-26T05:26:39;15.40;91.30
26186;DHT22;20067;48.764;9.176;2022-10-26T05:29:05;15.40;91.30
26186;DHT22;20067;48.764;9.176;2022-10-26T05:31:32;15.40;91.30
26186;DHT22;20067;48.764;9.176;2022-10-26T05:33:57;15.50;91.30
26186;DHT22;20067;48.764;9.176;2022-10-26T05:36:23;15.50;91.30
26186;DHT22;20067;48.764;9.176;2022-10-26T05:38:49;15.50;91.30
26186;DHT22;20067;48.764;9.176;2022-10-26T05:41:14;15.50;91.30
26186;DHT22;20067;48.764;9.176;2022-10-26T05:43:40;15.50;91.30
26186;DHT22;20067;48.764;9.176;2022-10-26T05:46:05;15.50;91.30
26186;DHT22;20067;48.764;9.176;2022-10-26T05:48:31;15.60;91.30
26186;DHT22;20067;48.764;9.176;2022-10-26T05:51:00;15.60;91.30
26186;DHT22;20067;48.764;9.176;2022-10-26T05:53:27;15.60;91.30
26186;DHT22;20067;48.764;9.176;2022-10-26T05:55:54;15.50;91.30
26186;DHT22;20067;48.764;9.176;2022-10-26T05:58:20;15.60;91.30
26186;DHT22;20067;48.764;9.176;2022-10-26T06:06:06;15.70;91.30
26186;DHT22;20067;48.764;9.176;2022-10-26T06:08:32;15.70;91.30
26186;DHT22;20067;48.764;9.176;2022-10-26T06:10:58;15.70;91.30
26186;DHT22;20067;48.764;9.176;2022-10-26T06:13:24;15.70;91.30
26186;DHT22;20067;48.764;9.176;2022-10-26T06:21:29;15.80;91.30
26186;DHT22;20067;48.764;9.176;2022-10-26T06:24:15;15.70;91.30
26186;DHT22;20067;48.764;9.176;2022-10-26T06:30:02;15.70;91.30
26186;DHT22;20067;48.764;9.176;2022-10-26T06:32:29;15.70;91.30
26186;DHT22;20067;48.764;9.176;2022-10-26T06:35:19;15.70;91.30
26186;DHT22;20067;48.764;9.176;2022-10-26T06:37:45;15.70;91.30
26186;DHT22;20067;48.764;9.176;2022-10-26T06:40:16;15.80;91.30
26186;DHT22;20067;48.764;9.176;2022-10-26T06:42:43;15.80;91.30
26186;DHT22;20067;48.764;9.176;2022-10-26T06:45:13;15.80;91.30
26186;DHT22;20067;48.764;9.176;2022-10-26T06:48:01;15.80;91.30
26186;DHT22;20067;48.764;9.176;2022-10-26T06:50:39;15.80;91.30
26186;DHT22;20067;48.764;9.176;2022-10-26T06:55:49;15.90;91.30
26186;DHT22;20067;48.764;9.176;2022-10-26T06:58:18;16.00;91.30
26186;DHT22;20067;48.764;9.176;2022-10-26T07:00:46;16.00;91.30
26186;DHT22;20067;48.764;9.176;2022-10-26T07:03:13;16.10;91.30
26186;DHT22;20067;48.764;9.176;2022-10-26T07:05:38;16.10;91.30
26186;DHT22;20067;48.764;9.176;2022-10-26T07:08:04;16.10;91.30
26186;DHT22;20067;48.764;9.176;2022-10-26T07:10:31;16.20;91.30
26186;DHT22;20067;48.764;9.176;2022-10-26T07:13:00;16.30;91.30
26186;DHT22;20067;48.764;9.176;2022-10-26T07:15:25;16.30;91.30
26186;DHT22;20067;48.764;9.176;2022-10-26T07:17:51;16.40;91.30
26186;DHT22;20067;48.764;9.176;2022-10-26T07:20:19;16.40;91.30
26186;DHT22;20067;48.764;9.176;2022-10-26T07:22:51;16.40;91.30
26186;DHT22;20067;48.764;9.176;2022-10-26T07:25:17;16.50;91.30
26186;DHT22;20067;48.764;9.176;2022-10-26T07:27:43;16.50;91.30
26186;DHT22;20067;48.764;9.176;2022-10-26T07:30:09;16.50;91.30
26186;DHT22;20067;48.764;9.176;2022-10-26T07:32:34;16.60;91.30
26186;DHT22;20067;48.764;9.176;2022-10-26T07:35:05;16.60;91.30
26186;DHT22;20067;48.764;9.176;2022-10-26T07:37:31;16.60;91.30
26186;DHT22;20067;48.764;9.176;2022-10-26T07:39:57;16.70;91.30
26186;DHT22;20067;48.764;9.176;2022-10-26T07:42:23;16.70;91.30
26186;DHT22;20067;48.764;9.176;2022-10-26T07:44:48;16.70;91.30
26186;DHT22;20067;48.764;9.176;2022-10-26T07:47:14;16.70;91.30
26186;DHT22;20067;48.764;9.176;2022-10-26T07:49:40;16.70;91.30
26186;DHT22;20067;48.764;9.176;2022-10-26T07:52:05;16.70;91.30
26186;DHT22;20067;48.764;9.176;2022-10-26T07:54:31;16.70;91.30
26186;DHT22;20067;48.764;9.176;2022-10-26T07:56:57;16.70;91.30
26186;DHT22;20067;48.764;9.176;2022-10-26T07:59:23;16.70;91.30
26186;DHT22;20067;48.764;9.176;2022-10-26T08:01:48;16.70;91.30
26186;DHT22;20067;48.764;9.176;2022-10-26T08:04:14;16.70;91.30
26186;DHT22;20067;48.764;9.176;2022-10-26T08:06:40;16.70;91.30
26186;DHT22;20067;48.764;9.176;2022-10-26T08:09:06;16.70;91.30
26186;DHT22;20067;48.764;9.176;2022-10-26T08:11:32;16.70;91.30
26186;DHT22;20067;48.764;9.176;2022-10-26T08:13:57;16.70;91.30
26186;DHT22;20067;48.764;9.176;2022-10-26T08:16:23;16.70;91.30
26186;DHT22;20067;48.764;9.176;2022-10-26T08:18:50;16.70;91.30
26186;DHT22;20067;48.764;9.176;2022-10-26T08:21:16;16.70;91.30
26186;DHT22;20067;48.764;9.176;2022-10-26T08:23:42;16.80;91.30
26186;DHT22;20067;48.764;9.176;2022-10-26T08:26:08;16.80;91.30
26186;DHT22;20067;48.764;9.176;2022-10-26T08:28:36;16.90;91.30
26186;DHT22;20067;48.764;9.176;2022-10-26T08:31:02;17.00;91.30
26186;DHT22;20067;48.764;9.176;2022-10-26T08:33:29;17.00;91.30
26186;DHT22;20067;48.764;9.176;2022-10-26T08:35:58;17.00;91.30
26186;DHT22;20067;48.764;9.176;2022-10-26T08:38:25;17.00;91.30
26186;DHT22;20067;48.764;9.176;2022-10-26T08:40:51;17.00;91.30
26186;DHT22;20067;48.764;9.176;2022-10-26T08:43:33;17.00;91.30
26186;DHT22;20067;48.764;9.176;2022-10-26T08:46:15;17.00;91.30
26186;DHT22;20067;48.764;9.176;2022-10-26T08:49:09;17.10;91.30
26186;DHT22;20067;48.764;9.176;2022-10-26T08:51:39;17.10;91.30
26186;DHT22;20067;48.764;9.176;2022-10-26T08:54:13;17.10;91.30
26186;DHT22;20067;48.764;9.176;2022-10-26T08:56:49;17.20;91.30
26186;DHT22;20067;48.764;9.176;2022-10-26T08:59:30;17.20;91.30
26186;DHT22;20067;48.764;9.176;2022-10-26T09:18:50;18.00;89.70
26186;DHT22;20067;48.764;9.176;2022-10-26T09:21:46;18.40;88.90
26186;DHT22;20067;48.764;9.176;2022-10-26T09:24:15;18.80;87.80
26186;DHT22;20067;48.764;9.176;2022-10-26T09:29:18;19.10;86.50
26186;DHT22;20067;48.764;9.176;2022-10-26T09:31:47;19.30;86.50
26186;DHT22;20067;48.764;9.176;2022-10-26T09:34:39;19.60;84.70
26186;DHT22;20067;48.764;9.176;2022-10-26T09:37:26;20.00;83.60
26186;DHT22;20067;48.764;9.176;2022-10-26T09:42:25;21.20;80.40
26186;DHT22;20067;48.764;9.176;2022-10-26T09:44:58;21.70;79.50
26186;DHT22;20067;48.764;9.176;2022-10-26T09:47:38;22.30;77.50
26186;DHT22;20067;48.764;9.176;2022-10-26T09:52:41;22.80;75.80
26186;DHT22;20067;48.764;9.176;2022-10-26T09:55:10;22.80;74.90
26186;DHT22;20067;48.764;9.176;2022-10-26T09:57:42;21.60;78.40
26186;DHT22;20067;48.764;9.176;2022-10-26T10:00:14;21.80;78.60
26186;DHT22;20067;48.764;9.176;2022-10-26T10:02:42;22.20;77.40
26186;DHT22;20067;48.764;9.176;2022-10-26T10:05:33;22.10;77.20
26186;DHT22;20067;48.764;9.176;2022-10-26T10:08:23;22.10;77.10
26186;DHT22;20067;48.764;9.176;2022-10-26T10:10:53;21.30;77.80
26186;DHT22;20067;48.764;9.176;2022-10-26T10:13:20;20.80;79.50
26186;DHT22;20067;48.764;9.176;2022-10-26T10:15:55;20.80;80.00
26186;DHT22;20067;48.764;9.176;2022-10-26T10:18:22;20.70;80.20
26186;DHT22;20067;48.764;9.176;2022-10-26T10:20:56;20.60;80.70
26186;DHT22;20067;48.764;9.176;2022-10-26T10:23:32;20.50;81.10
26186;DHT22;20067;48.764;9.176;2022-10-26T10:26:09;20.50;81.00
26186;DHT22;20067;48.764;9.176;2022-10-26T10:28:39;20.40;81.10
26186;DHT22;20067;48.764;9.176;2022-10-26T10:31:30;21.10;79.80
26186;DHT22;20067;48.764;9.176;2022-10-26T10:33:56;22.70;75.60
26186;DHT22;20067;48.764;9.176;2022-10-26T10:36:27;23.90;72.80
26186;DHT22;20067;48.764;9.176;2022-10-26T10:38:54;24.00;72.10
26186;DHT22;20067;48.764;9.176;2022-10-26T10:41:34;23.40;72.90
26186;DHT22;20067;48.764;9.176;2022-10-26T10:44:28;22.90;74.40
26186;DHT22;20067;48.764;9.176;2022-10-26T10:47:03;22.10;76.50
26186;DHT22;20067;48.764;9.176;2022-10-26T10:49:30;21.60;78.30
26186;DHT22;20067;48.764;9.176;2022-10-26T10:51:56;21.60;78.30
26186;DHT22;20067;48.764;9.176;2022-10-26T10:54:31;21.90;78.40
26186;DHT22;20067;48.764;9.176;2022-10-26T10:57:13;21.90;78.10
26186;DHT22;20067;48.764;9.176;2022-10-26T11:08:20;24.30;73.40
26186;DHT22;20067;48.764;9.176;2022-10-26T11:10:57;25.50;69.80
26186;DHT22;20067;48.764;9.176;2022-10-26T11:13:28;26.80;66.10
26186;DHT22;20067;48.764;9.176;2022-10-26T11:16:02;26.70;65.90
26186;DHT22;20067;48.764;9.176;2022-10-26T11:18:44;25.30;68.90
26186;DHT22;20067;48.764;9.176;2022-10-26T11:32:24;23.30;73.00
26186;DHT22;20067;48.764;9.176;2022-10-26T11:35:02;23.20;73.50
26186;DHT22;20067;48.764;9.176;2022-10-26T11:37:35;23.20;74.20
26186;DHT22;20067;48.764;9.176;2022-10-26T11:43:04;23.50;73.20
26186;DHT22;20067;48.764;9.176;2022-10-26T11:45:43;23.50;72.40
26186;DHT22;20067;48.764;9.176;2022-10-26T11:48:21;23.40;72.90
26186;DHT22;20067;48.764;9.176;2022-10-26T11:50:52;23.70;72.40
26186;DHT22;20067;48.764;9.176;2022-10-26T11:53:23;23.70;72.30
26186;DHT22;20067;48.764;9.176;2022-10-26T11:55:53;23.50;72.70
26186;DHT22;20067;48.764;9.176;2022-10-26T11:58:25;23.50;72.90
26186;DHT22;20067;48.764;9.176;2022-10-26T12:00:59;23.50;73.30
26186;DHT22;20067;48.764;9.176;2022-10-26T12:03:28;23.30;74.00
26186;DHT22;20067;48.764;9.176;2022-10-26T12:05:55;23.30;74.20
26186;DHT22;20067;48.764;9.176;2022-10-26T12:08:31;23.20;74.00
26186;DHT22;20067;48.764;9.176;2022-10-26T12:11:04;22.90;74.70
26186;DHT22;20067;48.764;9.176;2022-10-26T12:13:41;22.70;74.90
26186;DHT22;20067;48.764;9.176;2022-10-26T12:18:59;22.10;77.00
26186;DHT22;20067;48.764;9.176;2022-10-26T12:21:30;22.00;77.10
26186;DHT22;20067;48.764;9.176;2022-10-26T12:23:58;22.10;77.00
26186;DHT22;20067;48.764;9.176;2022-10-26T12:34:14;22.30;75.90
26186;DHT22;20067;48.764;9.176;2022-10-26T12:44:59;22.30;76.00
26186;DHT22;20067;48.764;9.176;2022-10-26T12:55:27;22.40;75.20
26186;DHT22;20067;48.764;9.176;2022-10-26T13:03:34;22.90;74.20
26186;DHT22;20067;48.764;9.176;2022-10-26T13:09:12;23.00;74.10
26186;DHT22;20067;48.764;9.176;2022-10-26T13:11:46;23.00;74.30
26186;DHT22;20067;48.764;9.176;2022-10-26T13:14:26;23.10;73.90
26186;DHT22;20067;48.764;9.176;2022-10-26T13:16:54;23.30;73.20
26186;DHT22;20067;48.764;9.176;2022-10-26T13:21:58;22.90;72.70
26186;DHT22;20067;48.764;9.176;2022-10-26T13:24:27;23.00;72.60
26186;DHT22;20067;48.764;9.176;2022-10-26T13:30:00;23.00;72.60
26186;DHT22;20067;48.764;9.176;2022-10-26T13:32:19;22.90;73.30
26186;DHT22;20067;48.764;9.176;2022-10-26T13:34:47;22.80;73.40
26186;DHT22;20067;48.764;9.176;2022-10-26T13:37:24;22.60;73.90
26186;DHT22;20067;48.764;9.176;2022-10-26T13:39:58;22.50;74.10
26186;DHT22;20067;48.764;9.176;2022-10-26T13:42:49;22.20;75.00
26186;DHT22;20067;48.764;9.176;2022-10-26T13:45:28;22.10;75.80
26186;DHT22;20067;48.764;9.176;2022-10-26T13:48:16;22.00;75.90
26186;DHT22;20067;48.764;9.176;2022-10-26T13:50:47;22.10;76.10
26186;DHT22;20067;48.764;9.176;2022-10-26T13:53:50;22.20;75.40
26186;DHT22;20067;48.764;9.176;2022-10-26T13:56:40;22.10;75.70
26186;DHT22;20067;48.764;9.176;2022-10-26T13:59:11;22.00;75.80
26186;DHT22;20067;48.764;9.176;2022-10-26T14:01:37;22.10;75.50
26186;DHT22;20067;48.764;9.176;2022-10-26T14:04:26;22.00;75.70
26186;DHT22;20067;48.764;9.176;2022-10-26T14:06:52;22.10;75.80
26186;DHT22;20067;48.764;9.176;2022-10-26T14:09:19;22.20;76.10
26186;DHT22;20067;48.764;9.176;2022-10-26T14:11:52;22.30;76.30
26186;DHT22;20067;48.764;9.176;2022-10-26T14:14:33;22.30;75.50
26186;DHT22;20067;48.764;9.176;2022-10-26T14:17:00;22.40;75.70
26186;DHT22;20067;48.764;9.176;2022-10-26T14:19:35;22.40;75.20
26186;DHT22;20067;48.764;9.176;2022-10-26T14:22:04;22.30;75.10
26186;DHT22;20067;48.764;9.176;2022-10-26T14:24:33;22.30;74.80
26186;DHT22;20067;48.764;9.176;2022-10-26T14:26:59;22.30;74.80
26186;DHT22;20067;48.764;9.176;2022-10-26T14:29:26;22.30;74.90
26186;DHT22;20067;48.764;9.176;2022-10-26T14:31:55;22.30;75.20
26186;DHT22;20067;48.764;9.176;2022-10-26T14:34:22;22.20;75.50
26186;DHT22;20067;48.764;9.176;2022-10-26T14:36:52;22.30;76.00
26186;DHT22;20067;48.764;9.176;2022-10-26T14:41:55;22.30;74.60
26186;DHT22;20067;48.764;9.176;2022-10-26T14:44:23;22.30;74.00
26186;DHT22;20067;48.764;9.176;2022-10-26T14:46:50;22.20;74.40
26186;DHT22;20067;48.764;9.176;2022-10-26T14:49:19;22.10;74.40
26186;DHT22;20067;48.764;9.176;2022-10-26T14:51:45;22.10;74.40
26186;DHT22;20067;48.764;9.176;2022-10-26T14:54:25;22.10;74.80
26186;DHT22;20067;48.764;9.176;2022-10-26T14:56:52;22.00;75.00
26186;DHT22;20067;48.764;9.176;2022-10-26T14:59:27;21.90;75.50
26186;DHT22;20067;48.764;9.176;2022-10-26T15:04:29;21.80;75.50
26186;DHT22;20067;48.764;9.176;2022-10-26T15:09:42;21.60;75.60
26186;DHT22;20067;48.764;9.176;2022-10-26T15:12:21;21.50;76.20
26186;DHT22;20067;48.764;9.176;2022-10-26T15:14:48;21.50;76.40
26186;DHT22;20067;48.764;9.176;2022-10-26T15:17:26;21.60;76.40
26186;DHT22;20067;48.764;9.176;2022-10-26T15:20:03;21.60;76.70
26186;DHT22;20067;48.764;9.176;2022-10-26T15:22:29;21.60;76.40
26186;DHT22;20067;48.764;9.176;2022-10-26T15:25:01;21.60;76.50
26186;DHT22;20067;48.764;9.176;2022-10-26T15:27:27;21.60;77.10
26186;DHT22;20067;48.764;9.176;2022-10-26T15:30:21;21.50;77.50
26186;DHT22;20067;48.764;9.176;2022-10-26T15:32:47;21.40;78.40
26186;DHT22;20067;48.764;9.176;2022-10-26T15:37:42;21.00;79.60
26186;DHT22;20067;48.764;9.176;2022-10-26T15:40:08;20.90;79.90
26186;DHT22;20067;48.764;9.176;2022-10-26T15:42:39;20.70;80.70
26186;DHT22;20067;48.764;9.176;2022-10-26T15:47:44;20.50;82.30
26186;DHT22;20067;48.764;9.176;2022-10-26T15:50:16;20.40;82.30
26186;DHT22;20067;48.764;9.176;2022-10-26T15:52:42;20.20;83.00
26186;DHT22;20067;48.764;9.176;2022-10-26T15:55:09;20.00;84.10
26186;DHT22;20067;48.764;9.176;2022-10-26T15:57:35;19.80;84.40
26186;DHT22;20067;48.764;9.176;2022-10-26T16:00:03;19.70;85.00
26186;DHT22;20067;48.764;9.176;2022-10-26T16:02:30;19.60;85.50
26186;DHT22;20067;48.764;9.176;2022-10-26T16:04:55;19.50;86.20
26186;DHT22;20067;48.764;9.176;2022-10-26T16:07:24;19.40;86.70
26186;DHT22;20067;48.764;9.176;2022-10-26T16:09:50;19.20;87.20
26186;DHT22;20067;48.764;9.176;2022-10-26T16:12:16;19.20;87.80
26186;DHT22;20067;48.764;9.176;2022-10-26T16:14:42;19.20;87.90
26186;DHT22;20067;48.764;9.176;2022-10-26T16:17:07;19.30;86.80
26186;DHT22;20067;48.764;9.176;2022-10-26T16:19:33;19.10;87.00
26186;DHT22;20067;48.764;9.176;2022-10-26T16:21:59;19.00;87.70
26186;DHT22;20067;48.764;9.176;2022-10-26T16:24:27;19.10;87.70
26186;DHT22;20067;48.764;9.176;2022-10-26T16:26:56;19.10;88.00
26186;DHT22;20067;48.764;9.176;2022-10-26T16:29:22;19.00;88.10
26186;DHT22;20067;48.764;9.176;2022-10-26T16:31:48;18.80;88.50
26186;DHT22;20067;48.764;9.176;2022-10-26T16:34:14;18.60;89.30
26186;DHT22;20067;48.764;9.176;2022-10-26T16:36:39;18.60;89.40
26186;DHT22;20067;48.764;9.176;2022-10-26T16:39:05;18.60;89.50
26186;DHT22;20067;48.764;9.176;2022-10-26T16:41:31;18.50;89.80
26186;DHT22;20067;48.764;9.176;2022-10-26T16:43:57;18.50;89.60
26186;DHT22;20067;48.764;9.176;2022-10-26T16:46:23;18.40;90.20
26186;DHT22;20067;48.764;9.176;2022-10-26T16:48:49;18.30;91.10
26186;DHT22;20067;48.764;9.176;2022-10-26T16:51:21;18.20;91.30
26186;DHT22;20067;48.764;9.176;2022-10-26T16:53:49;18.20;91.30
26186;DHT22;20067;48.764;9.176;2022-10-26T16:56:18;18.20;91.30
26186;DHT22;20067;48.764;9.176;2022-10-26T16:58:44;18.10;91.30
26186;DHT22;20067;48.764;9.176;2022-10-26T17:01:11;18.00;91.30
26186;DHT22;20067;48.764;9.176;2022-10-26T17:03:37;18.10;91.30
26186;DHT22;20067;48.764;9.176;2022-10-26T17:06:05;18.20;91.30
26186;DHT22;20067;48.764;9.176;2022-10-26T17:08:33;18.10;91.30
26186;DHT22;20067;48.764;9.176;2022-10-26T17:13:34;17.80;91.30
26186;DHT22;20067;48.764;9.176;2022-10-26T17:16:01;17.70;91.30
26186;DHT22;20067;48.764;9.176;2022-10-26T17:18:27;17.70;91.30
26186;DHT22;20067;48.764;9.176;2022-10-26T17:20:53;17.70;91.30
26186;DHT22;20067;48.764;9.176;2022-10-26T17:23:18;17.60;91.30
26186;DHT22;20067;48.764;9.176;2022-10-26T17:25:44;17.60;91.30
26186;DHT22;20067;48.764;9.176;2022-10-26T17:28:11;17.60;91.30
26186;DHT22;20067;48.764;9.176;2022-10-26T17:30:37;17.70;91.30
26186;DHT22;20067;48.764;9.176;2022-10-26T17:33:02;17.60;91.30
26186;DHT22;20067;48.764;9.176;2022-10-26T17:35:28;17.60;91.30
26186;DHT22;20067;48.764;9.176;2022-10-26T17:37:54;17.50;91.30
26186;DHT22;20067;48.764;9.176;2022-10-26T17:40:19;17.40;91.30
26186;DHT22;20067;48.764;9.176;2022-10-26T17:42:45;17.40;91.30
26186;DHT22;20067;48.764;9.176;2022-10-26T17:45:11;17.30;91.30
26186;DHT22;20067;48.764;9.176;2022-10-26T17:47:36;17.40;91.30
26186;DHT22;20067;48.764;9.176;2022-10-26T17:50:03;17.40;91.30
26186;DHT22;20067;48.764;9.176;2022-10-26T17:52:29;17.30;91.30
26186;DHT22;20067;48.764;9.176;2022-10-26T17:54:55;17.30;91.30
26186;DHT22;20067;48.764;9.176;2022-10-26T17:57:20;17.30;91.30
26186;DHT22;20067;48.764;9.176;2022-10-26T17:59:46;17.30;91.30
26186;DHT22;20067;48.764;9.176;2022-10-26T18:02:12;17.30;91.30
26186;DHT22;20067;48.764;9.176;2022-10-26T18:04:38;17.30;91.30
26186;DHT22;20067;48.764;9.176;2022-10-26T18:07:03;17.30;91.30
26186;DHT22;20067;48.764;9.176;2022-10-26T18:09:29;17.20;91.30